Nine-0-nine — WDF7816 — position and weather

sailwx.info

Track history (hours):
 
Tides and Currents Weather Stations Pressure Air Temp Water Temp Dewpoint Dewpoint Depression Visibility Wind Speed Wind Dir Waves Ship Positions

Nine-0-nine

Owner: Warn, Mike, Aurora, OR. More information available from US FCC via Universal Licensing System and Coast Guard Vessel Documentation Center.

Last reported at 2018-Jun-20 11:15 UTC. Time now 2018-Jun-20 15:17 UTC.
Position N 46°56' W 124°50'.

Type: Ship. MMSI: 366678000.

Date/timePositionNaut miles runAvg speedWind from/ knotsBaromVisibWave heightAir tempDewpointWater temp
2018-Jun-20 11:15N 46°56' W 124°50'6 9.9
2018-Jun-20 10:36N 46°49' W 124°50'210.3
2018-Jun-20 10:26N 46°47' W 124°50'4 9.9
2018-Jun-20 10:00N 46°43' W 124°49'510.3
2018-Jun-20 09:30N 46°38' W 124°49'510.2
2018-Jun-20 09:00N 46°33' W 124°48'510.5
2018-Jun-20 08:30N 46°28' W 124°47'510.4
2018-Jun-20 08:00N 46°22' W 124°47'510.3
2018-Jun-20 07:30N 46°17' W 124°46'510.3
2018-Jun-20 06:59N 46°12' W 124°46'1510.4
2018-Jun-20 05:35N 45°58' W 124°48'110.3
2018-Jun-20 05:30N 45°57' W 124°48'510.5
2018-Jun-20 05:00N 45°51' W 124°48'510.3
2018-Jun-20 04:30N 45°46' W 124°47'510.1
2018-Jun-20 03:59N 45°41' W 124°47'710.0
2018-Jun-20 03:19N 45°35' W 124°46'3 9.9
2018-Jun-20 03:00N 45°31' W 124°46'510.0
2018-Jun-20 02:28N 45°26' W 124°46'5 9.9
2018-Jun-20 02:00N 45°21' W 124°46'5 9.5
2018-Jun-20 01:30N 45°17' W 124°46'5 9.4
2018-Jun-20 01:00N 45°12' W 124°46'6 9.4
2018-Jun-20 00:25N 45°06' W 124°46'4 9.7
2018-Jun-20 00:00N 45°02' W 124°46'5 9.7
2018-Jun-19 23:28N 44°57' W 124°45'4 9.6
2018-Jun-19 23:00N 44°53' W 124°45'510.0
2018-Jun-19 22:28N 44°47' W 124°45'510.0
2018-Jun-19 21:59N 44°43' W 124°45'910.0
2018-Jun-19 21:06N 44°34' W 124°45'1310.1
2018-Jun-19 19:50N 44°21' W 124°45'610.2
2018-Jun-19 19:17N 44°15' W 124°45'310.5
2018-Jun-19 18:59N 44°12' W 124°45'710.4
2018-Jun-19 18:19N 44°05' W 124°45'710.3
2018-Jun-19 17:39N 43°59' W 124°45'310.1
2018-Jun-19 17:23N 43°56' W 124°45'334 9.4
2018-Jun-18 06:01N 38°27' W 123°30'0 9.5
2018-Jun-18 05:59N 38°27' W 123°29'5 9.8
2018-Jun-18 05:31N 38°23' W 123°26'6 9.6
2018-Jun-18 04:55N 38°18' W 123°23'4 9.3
2018-Jun-18 04:29N 38°14' W 123°20'4 9.6
2018-Jun-18 04:01N 38°11' W 123°17'510.1
2018-Jun-18 03:31N 38°07' W 123°13'510.6
2018-Jun-18 03:01N 38°02' W 123°10'713.4
2018-Jun-18 02:28N 37°56' W 123°05'613.2
2018-Jun-18 02:00N 37°50' W 123°01'18310.6
2018-Jun-17 08:48N 35°10' W 121°12'3 9.4
2018-Jun-17 08:31N 35°08' W 121°11'5 9.9
2018-Jun-17 08:01N 35°03' W 121°08'5 9.8
2018-Jun-17 07:31N 34°59' W 121°04'5 9.9
2018-Jun-17 07:01N 34°55' W 121°01'510.1
2018-Jun-17 06:30N 34°51' W 120°58'5 9.9
2018-Jun-17 06:00N 34°47' W 120°54'6 9.8
2018-Jun-17 05:25N 34°42' W 120°51'410.1
2018-Jun-17 04:59N 34°38' W 120°48'5 9.6
2018-Jun-17 04:30N 34°34' W 120°45'5 9.5
2018-Jun-17 04:01N 34°31' W 120°41'5 9.6
2018-Jun-17 03:30N 34°28' W 120°36'5 9.7
2018-Jun-17 03:01N 34°26' W 120°31'510.0
2018-Jun-17 02:31N 34°23' W 120°26'510.8
2018-Jun-17 02:01N 34°21' W 120°20'510.9
2018-Jun-17 01:31N 34°20' W 120°13'710.2
2018-Jun-17 00:52N 34°17' W 120°06'5 9.8
2018-Jun-17 00:23N 34°16' W 120°01'4 9.9
2018-Jun-16 23:59N 34°14' W 119°56'6 9.8
2018-Jun-16 23:25N 34°13' W 119°50'5 9.8
2018-Jun-16 22:52N 34°11' W 119°44'4 9.6
2018-Jun-16 22:25N 34°10' W 119°39'4 9.8
2018-Jun-16 21:59N 34°08' W 119°34'510.1
2018-Jun-16 21:30N 34°07' W 119°28'510.1
2018-Jun-16 21:01N 34°05' W 119°22'610.2
2018-Jun-16 20:25N 34°03' W 119°16'410.0
2018-Jun-16 20:00N 34°01' W 119°11'510.1
2018-Jun-16 19:30N 33°59' W 119°06'5 9.7
2018-Jun-16 18:58N 33°57' W 118°60'4 9.5
2018-Jun-16 18:30N 33°55' W 118°55'33 9.8
2018-Jun-16 15:05N 33°40' W 118°19'1 9.2
2018-Jun-16 14:59N 33°40' W 118°18'5 9.3
2018-Jun-16 14:27N 33°39' W 118°12'4 9.5
2018-Jun-16 13:59N 33°38' W 118°07'  
Track history (hours):
 
Tides and Currents Weather Stations Pressure Air Temp Water Temp Dewpoint Dewpoint Depression Visibility Wind Speed Wind Dir Waves Ship Positions

Nine-0-nine

Owner: Warn, Mike, Aurora, OR. More information available from US FCC via Universal Licensing System and Coast Guard Vessel Documentation Center.

Last reported at 2018-Jun-20 11:15 UTC. Time now 2018-Jun-20 15:17 UTC.
Position N 46°56' W 124°50'.

Type: Ship. MMSI: 366678000.

Date/timePositionNaut miles runAvg speedWind from/ knotsBaromVisibWave heightAir tempDewpointWater temp
2018-Jun-20 11:15N 46°56' W 124°50'6 9.9
2018-Jun-20 10:36N 46°49' W 124°50'210.3
2018-Jun-20 10:26N 46°47' W 124°50'4 9.9
2018-Jun-20 10:00N 46°43' W 124°49'510.3
2018-Jun-20 09:30N 46°38' W 124°49'510.2
2018-Jun-20 09:00N 46°33' W 124°48'510.5
2018-Jun-20 08:30N 46°28' W 124°47'510.4
2018-Jun-20 08:00N 46°22' W 124°47'510.3
2018-Jun-20 07:30N 46°17' W 124°46'510.3
2018-Jun-20 06:59N 46°12' W 124°46'1510.4
2018-Jun-20 05:35N 45°58' W 124°48'110.3
2018-Jun-20 05:30N 45°57' W 124°48'510.5
2018-Jun-20 05:00N 45°51' W 124°48'510.3
2018-Jun-20 04:30N 45°46' W 124°47'510.1
2018-Jun-20 03:59N 45°41' W 124°47'710.0
2018-Jun-20 03:19N 45°35' W 124°46'3 9.9
2018-Jun-20 03:00N 45°31' W 124°46'510.0
2018-Jun-20 02:28N 45°26' W 124°46'5 9.9
2018-Jun-20 02:00N 45°21' W 124°46'5 9.5
2018-Jun-20 01:30N 45°17' W 124°46'5 9.4
2018-Jun-20 01:00N 45°12' W 124°46'6 9.4
2018-Jun-20 00:25N 45°06' W 124°46'4 9.7
2018-Jun-20 00:00N 45°02' W 124°46'5 9.7
2018-Jun-19 23:28N 44°57' W 124°45'4 9.6
2018-Jun-19 23:00N 44°53' W 124°45'510.0
2018-Jun-19 22:28N 44°47' W 124°45'510.0
2018-Jun-19 21:59N 44°43' W 124°45'910.0
2018-Jun-19 21:06N 44°34' W 124°45'1310.1
2018-Jun-19 19:50N 44°21' W 124°45'610.2
2018-Jun-19 19:17N 44°15' W 124°45'310.5
2018-Jun-19 18:59N 44°12' W 124°45'710.4
2018-Jun-19 18:19N 44°05' W 124°45'710.3
2018-Jun-19 17:39N 43°59' W 124°45'310.1
2018-Jun-19 17:23N 43°56' W 124°45'334 9.4
2018-Jun-18 06:01N 38°27' W 123°30'0 9.5
2018-Jun-18 05:59N 38°27' W 123°29'5 9.8
2018-Jun-18 05:31N 38°23' W 123°26'6 9.6
2018-Jun-18 04:55N 38°18' W 123°23'4 9.3
2018-Jun-18 04:29N 38°14' W 123°20'4 9.6
2018-Jun-18 04:01N 38°11' W 123°17'510.1
2018-Jun-18 03:31N 38°07' W 123°13'510.6
2018-Jun-18 03:01N 38°02' W 123°10'713.4
2018-Jun-18 02:28N 37°56' W 123°05'613.2
2018-Jun-18 02:00N 37°50' W 123°01'18310.6
2018-Jun-17 08:48N 35°10' W 121°12'3 9.4
2018-Jun-17 08:31N 35°08' W 121°11'5 9.9
2018-Jun-17 08:01N 35°03' W 121°08'5 9.8
2018-Jun-17 07:31N 34°59' W 121°04'5 9.9
2018-Jun-17 07:01N 34°55' W 121°01'510.1
2018-Jun-17 06:30N 34°51' W 120°58'5 9.9
2018-Jun-17 06:00N 34°47' W 120°54'6 9.8
2018-Jun-17 05:25N 34°42' W 120°51'410.1
2018-Jun-17 04:59N 34°38' W 120°48'5 9.6
2018-Jun-17 04:30N 34°34' W 120°45'5 9.5
2018-Jun-17 04:01N 34°31' W 120°41'5 9.6
2018-Jun-17 03:30N 34°28' W 120°36'5 9.7
2018-Jun-17 03:01N 34°26' W 120°31'510.0
2018-Jun-17 02:31N 34°23' W 120°26'510.8
2018-Jun-17 02:01N 34°21' W 120°20'510.9
2018-Jun-17 01:31N 34°20' W 120°13'710.2
2018-Jun-17 00:52N 34°17' W 120°06'5 9.8
2018-Jun-17 00:23N 34°16' W 120°01'4 9.9
2018-Jun-16 23:59N 34°14' W 119°56'6 9.8
2018-Jun-16 23:25N 34°13' W 119°50'5 9.8
2018-Jun-16 22:52N 34°11' W 119°44'4 9.6
2018-Jun-16 22:25N 34°10' W 119°39'4 9.8
2018-Jun-16 21:59N 34°08' W 119°34'510.1
2018-Jun-16 21:30N 34°07' W 119°28'510.1
2018-Jun-16 21:01N 34°05' W 119°22'610.2
2018-Jun-16 20:25N 34°03' W 119°16'410.0
2018-Jun-16 20:00N 34°01' W 119°11'510.1
2018-Jun-16 19:30N 33°59' W 119°06'5 9.7
2018-Jun-16 18:58N 33°57' W 118°60'4 9.5
2018-Jun-16 18:30N 33°55' W 118°55'33 9.8
2018-Jun-16 15:05N 33°40' W 118°19'1 9.2
2018-Jun-16 14:59N 33°40' W 118°18'5 9.3
2018-Jun-16 14:27N 33°39' W 118°12'4 9.5
2018-Jun-16 13:59N 33°38' W 118°07'  

Dump ship's entire track history